createdAt,value
2022-08-26T00:01:08.908Z,0
2022-08-26T00:04:34.104Z,0
2022-08-26T00:07:59.365Z,0
2022-08-26T00:11:26.504Z,0
2022-08-26T00:14:49.701Z,0
2022-08-26T00:18:16.914Z,0
2022-08-26T00:21:40.019Z,0
2022-08-26T00:25:05.174Z,0
2022-08-26T00:28:30.386Z,0
2022-08-26T00:31:55.568Z,0
2022-08-26T00:35:20.730Z,0
2022-08-26T00:38:45.890Z,0
2022-08-26T00:42:11.094Z,0
2022-08-26T00:45:36.313Z,0
2022-08-26T00:49:01.463Z,0
2022-08-26T00:52:26.663Z,0
2022-08-26T00:55:51.851Z,0
2022-08-26T00:59:17.141Z,0
2022-08-26T01:02:46.749Z,0
2022-08-26T01:06:09.946Z,0
2022-08-26T01:09:32.762Z,0
2022-08-26T01:12:57.973Z,0
2022-08-26T01:16:23.265Z,0
2022-08-26T01:19:48.366Z,0
2022-08-26T01:23:13.538Z,0
2022-08-26T01:26:38.703Z,0
2022-08-26T01:30:03.843Z,0
2022-08-26T01:33:29.011Z,0
2022-08-26T01:36:54.203Z,0
2022-08-26T01:40:19.394Z,0
2022-08-26T01:43:44.552Z,0
2022-08-26T01:47:09.790Z,0
2022-08-26T01:50:34.956Z,0
2022-08-26T01:54:00.132Z,0
2022-08-26T01:57:25.320Z,0
2022-08-26T02:00:50.609Z,0
2022-08-26T02:04:15.696Z,0
2022-08-26T02:07:40.835Z,0
2022-08-26T02:11:06.071Z,0
2022-08-26T02:14:31.286Z,0
2022-08-26T02:17:56.490Z,0
2022-08-26T02:21:21.725Z,0
2022-08-26T02:24:46.886Z,0
2022-08-26T02:28:12.047Z,0
2022-08-26T02:31:37.246Z,0
2022-08-26T02:35:02.368Z,0
2022-08-26T02:38:27.541Z,0
2022-08-26T02:41:52.775Z,0
2022-08-26T02:45:23.209Z,0
2022-08-26T02:48:43.169Z,0
2022-08-26T02:52:08.352Z,0
2022-08-26T02:55:33.519Z,0
2022-08-26T02:58:58.699Z,0
2022-08-26T03:02:23.975Z,0
2022-08-26T03:05:49.112Z,0
2022-08-26T03:09:18.611Z,0
2022-08-26T03:12:39.500Z,0
2022-08-26T03:16:04.748Z,0
2022-08-26T03:19:29.873Z,0
2022-08-26T03:22:56.205Z,0
2022-08-26T03:26:20.280Z,0
2022-08-26T03:29:45.454Z,0
2022-08-26T03:33:10.704Z,0
2022-08-26T03:36:35.957Z,0
2022-08-26T03:40:03.497Z,0
2022-08-26T03:43:26.897Z,0
2022-08-26T03:46:56.581Z,0
2022-08-26T03:50:22.569Z,0
2022-08-26T03:53:46.676Z,0
2022-08-26T03:57:11.891Z,0
2022-08-26T04:00:37.066Z,0
2022-08-26T04:04:02.312Z,0
2022-08-26T04:07:27.490Z,0
2022-08-26T04:10:52.688Z,0
2022-08-26T04:14:20.173Z,0
2022-08-26T04:17:43.086Z,0
2022-08-26T04:21:08.282Z,0
2022-08-26T04:24:33.519Z,0
2022-08-26T04:27:58.716Z,0
2022-08-26T04:31:24.045Z,0
2022-08-26T04:34:49.195Z,0
2022-08-26T04:38:14.422Z,0
2022-08-26T04:41:39.665Z,0
2022-08-26T04:45:05.725Z,0
2022-08-26T04:48:30.171Z,0
2022-08-26T04:51:59.022Z,0
2022-08-26T04:55:25.396Z,6
2022-08-26T04:58:49.490Z,6
2022-08-26T05:02:14.680Z,6
2022-08-26T05:05:39.915Z,6
2022-08-26T05:09:05.116Z,6
2022-08-26T05:12:30.319Z,6
2022-08-26T05:15:55.730Z,6
2022-08-26T05:19:21.134Z,6
2022-08-26T05:22:46.005Z,6
2022-08-26T05:26:11.221Z,6
2022-08-26T05:29:36.441Z,6
2022-08-26T05:33:01.675Z,6
2022-08-26T05:36:27.103Z,6
2022-08-26T05:39:52.137Z,6
2022-08-26T05:43:17.320Z,6
2022-08-26T05:46:42.581Z,6
2022-08-26T05:50:07.746Z,11
2022-08-26T05:53:32.963Z,11
2022-08-26T05:56:58.155Z,11
2022-08-26T06:00:23.368Z,11
2022-08-26T06:03:48.960Z,11
2022-08-26T06:07:13.826Z,17
2022-08-26T06:10:39.053Z,17
2022-08-26T06:14:04.423Z,23
2022-08-26T06:17:29.470Z,23
2022-08-26T06:20:57.562Z,23
2022-08-26T06:24:19.906Z,23
2022-08-26T06:27:45.116Z,28
2022-08-26T06:31:10.421Z,23
2022-08-26T06:34:35.522Z,23
2022-08-26T06:38:00.731Z,23
2022-08-26T06:41:25.917Z,23
2022-08-26T06:44:51.158Z,23
2022-08-26T06:48:16.350Z,23
2022-08-26T06:51:41.578Z,23
2022-08-26T06:55:06.782Z,23
2022-08-26T06:58:31.962Z,23
2022-08-26T07:01:57.244Z,23
2022-08-26T07:05:22.453Z,23
2022-08-26T07:08:47.684Z,23
2022-08-26T07:12:12.931Z,28
2022-08-26T07:15:38.168Z,34
2022-08-26T07:19:03.569Z,39
2022-08-26T07:22:28.594Z,45
2022-08-26T07:25:53.821Z,45
2022-08-26T07:29:19.043Z,45
2022-08-26T07:32:44.263Z,39
2022-08-26T07:36:09.531Z,39
2022-08-26T07:39:34.777Z,39
2022-08-26T07:43:00.010Z,39
2022-08-26T07:46:27.320Z,34
2022-08-26T07:49:52.774Z,34
2022-08-26T07:53:15.708Z,34
2022-08-26T07:56:40.912Z,34
2022-08-26T08:00:06.154Z,34
2022-08-26T08:03:31.381Z,39
2022-08-26T08:06:56.611Z,39
2022-08-26T08:10:21.814Z,34
2022-08-26T08:13:47.056Z,34
2022-08-26T08:20:37.403Z,34
2022-08-26T08:24:02.613Z,34
2022-08-26T08:27:27.816Z,34
2022-08-26T08:30:53.094Z,34
2022-08-26T08:34:18.389Z,34
2022-08-26T08:37:43.541Z,34
2022-08-26T08:41:08.785Z,28
2022-08-26T08:44:34.060Z,28
2022-08-26T08:47:59.297Z,34
2022-08-26T08:51:24.549Z,28
2022-08-26T08:54:49.790Z,34
2022-08-26T08:58:15.034Z,34
2022-08-26T09:01:40.346Z,34
2022-08-26T09:05:05.537Z,45
2022-08-26T09:08:30.788Z,45
2022-08-26T09:11:56.123Z,45
2022-08-26T09:15:21.468Z,28
2022-08-26T09:18:46.767Z,39
2022-08-26T09:22:12.051Z,28
2022-08-26T09:25:37.238Z,34
2022-08-26T09:29:02.468Z,45
2022-08-26T09:32:27.687Z,45
2022-08-26T09:35:52.967Z,45
2022-08-26T09:39:18.171Z,45
2022-08-26T09:42:43.403Z,45
2022-08-26T09:46:08.669Z,45
2022-08-26T09:49:35.951Z,45
2022-08-26T09:52:59.138Z,45
2022-08-26T09:56:24.368Z,51
2022-08-26T09:59:49.613Z,51
2022-08-26T10:03:15.710Z,51
2022-08-26T10:06:40.092Z,51
2022-08-26T10:10:05.326Z,51
2022-08-26T10:13:37.316Z,51
2022-08-26T10:17:02.803Z,73
2022-08-26T10:20:28.106Z,51
2022-08-26T10:23:53.348Z,45
2022-08-26T10:27:18.581Z,79
2022-08-26T10:30:43.797Z,17
2022-08-26T10:34:09.042Z,17
2022-08-26T10:37:34.235Z,11
2022-08-26T10:40:59.469Z,17
2022-08-26T10:44:24.687Z,17
2022-08-26T10:47:49.927Z,23
2022-08-26T10:51:15.145Z,17
2022-08-26T10:54:40.448Z,17
2022-08-26T10:58:07.255Z,17
2022-08-26T12:59:40.087Z,39
2022-08-26T13:03:05.424Z,39
2022-08-26T13:06:31.164Z,39
2022-08-26T13:09:56.436Z,39
2022-08-26T13:13:21.705Z,39
2022-08-26T13:16:46.980Z,39
2022-08-26T13:20:12.237Z,39
2022-08-26T13:23:41.973Z,39
2022-08-26T13:27:02.701Z,39
2022-08-26T13:30:27.965Z,39
2022-08-26T13:33:53.203Z,39
2022-08-26T13:37:18.450Z,45
2022-08-26T13:40:43.740Z,39
2022-08-26T13:44:08.962Z,39
2022-08-26T13:47:34.235Z,39
2022-08-26T13:50:59.469Z,39
2022-08-26T13:54:25.468Z,39
2022-08-26T13:57:54.184Z,45
2022-08-26T14:01:19.837Z,45
2022-08-26T14:04:45.078Z,45
2022-08-26T14:08:10.474Z,45
2022-08-26T14:11:39.048Z,39
2022-08-26T14:15:00.871Z,45
2022-08-26T14:18:26.324Z,51
2022-08-26T14:21:51.358Z,45
2022-08-26T14:25:16.659Z,56
2022-08-26T14:28:41.899Z,45
2022-08-26T15:07:44.367Z,11
2022-08-26T15:11:09.596Z,23
2022-08-26T15:14:34.841Z,23
2022-08-26T15:18:00.082Z,23
2022-08-26T15:21:25.312Z,23
2022-08-26T15:24:51.726Z,17
2022-08-26T15:28:15.771Z,17
2022-08-26T15:31:41.303Z,11
